Terminal Aerodrome Forecast
Issued by NWS

Home | Current Version | Previous Version | Text Only | Print | Product List | Glossary On
Versions: 1 2 3 4 5 6 7 8 9 10 11 12 13 14 15 16 17 18 19 20 21 22 23 24 25 26 27 28 29 30 31 32 33 34 35 36 37 38
000
FTUS45 KBOU 281739
TAFBJC
TAF
KBJC 281739Z 2818/2918 29020G45KT P6SM FEW080 BKN200
     FM281900 32015G25KT P6SM BKN120 BKN180
     FM282300 35010KT P6SM BKN120 BKN180
     FM290300 04005KT P6SM BKN070 BKN110
     FM290800 07006KT P6SM SCT030 BKN040 OVC080
     FM291000 VRB05KT P6SM SCT012 OVC025=

USA.gov is the U.S. government's official web portal to all federal, state and local government web resources and services.